Terminal Aerodrome Forecast
Issued by NWS

Home | Current Version | Previous Version | Text Only | Print | Product List | Glossary On
Versions: 1 2 3 4 5 6 7 8 9 10 11 12 13 14 15 16 17 18 19 20
000
FTUS44 KLIX 171730
TAFMCB
TAF
KMCB 171730Z 1718/1818 19011KT P6SM SKC
     FM180700 19007KT 5SM BR SCT008 BKN120
     FM181200 20008KT 3SM BR SCT003 BKN015
     FM181300 20009KT P6SM SCT003 BKN010
     FM181700 22013KT P6SM SCT015 OVC020=

USA.gov is the U.S. government's official web portal to all federal, state and local government web resources and services.